sensor_id;sensor_type;location;lat;lon;timestamp;pressure;altitude;pressure_sealevel;temperature;humidity
42603;BME280;28233;55.748;48.752;2023-03-05T00:00:35;97020.75;;;-0.89;100.00
42603;BME280;28233;55.748;48.752;2023-03-05T00:02:38;97026.13;;;-0.89;100.00
42603;BME280;28233;55.748;48.752;2023-03-05T00:04:40;97017.56;;;-0.91;100.00
42603;BME280;28233;55.748;48.752;2023-03-05T00:06:43;97008.19;;;-0.93;100.00
42603;BME280;28233;55.748;48.752;2023-03-05T00:08:47;97011.69;;;-0.93;100.00
42603;BME280;28233;55.748;48.752;2023-03-05T00:12:59;97004.09;;;-0.91;100.00
42603;BME280;28233;55.748;48.752;2023-03-05T00:15:02;97007.28;;;-0.89;100.00
42603;BME280;28233;55.748;48.752;2023-03-05T00:17:05;96999.47;;;-0.90;100.00
42603;BME280;28233;55.748;48.752;2023-03-05T00:19:09;96986.78;;;-0.90;100.00
42603;BME280;28233;55.748;48.752;2023-03-05T00:21:35;96989.03;;;-0.92;100.00
42603;BME280;28233;55.748;48.752;2023-03-05T00:23:39;96991.09;;;-0.89;100.00
42603;BME280;28233;55.748;48.752;2023-03-05T00:25:42;96988.56;;;-0.85;100.00
42603;BME280;28233;55.748;48.752;2023-03-05T00:27:45;96975.91;;;-0.84;100.00
42603;BME280;28233;55.748;48.752;2023-03-05T00:29:48;96983.00;;;-0.89;100.00
42603;BME280;28233;55.748;48.752;2023-03-05T00:31:51;96983.31;;;-0.90;100.00
42603;BME280;28233;55.748;48.752;2023-03-05T00:33:56;96988.69;;;-0.90;100.00
42603;BME280;28233;55.748;48.752;2023-03-05T00:35:59;96981.41;;;-0.90;100.00
42603;BME280;28233;55.748;48.752;2023-03-05T00:38:03;96981.41;;;-0.90;100.00
42603;BME280;28233;55.748;48.752;2023-03-05T00:40:07;96981.25;;;-0.93;100.00
42603;BME280;28233;55.748;48.752;2023-03-05T00:42:09;96977.75;;;-0.94;100.00
42603;BME280;28233;55.748;48.752;2023-03-05T00:44:12;96971.88;;;-0.96;100.00
42603;BME280;28233;55.748;48.752;2023-03-05T00:46:15;96972.66;;;-0.95;100.00
42603;BME280;28233;55.748;48.752;2023-03-05T00:48:20;96963.78;;;-0.96;100.00
42603;BME280;28233;55.748;48.752;2023-03-05T00:50:24;96963.78;;;-0.96;100.00
42603;BME280;28233;55.748;48.752;2023-03-05T00:52:27;96964.28;;;-0.94;100.00
42603;BME280;28233;55.748;48.752;2023-03-05T00:54:29;96963.16;;;-0.93;100.00
42603;BME280;28233;55.748;48.752;2023-03-05T00:56:32;96958.56;;;-0.92;100.00
42603;BME280;28233;55.748;48.752;2023-03-05T00:58:35;96957.47;;;-0.91;100.00
42603;BME280;28233;55.748;48.752;2023-03-05T01:00:38;96960.31;;;-0.96;100.00
42603;BME280;28233;55.748;48.752;2023-03-05T01:02:42;96954.56;;;-0.95;100.00
42603;BME280;28233;55.748;48.752;2023-03-05T01:04:45;96948.59;;;-0.92;100.00
42603;BME280;28233;55.748;48.752;2023-03-05T01:06:48;96947.63;;;-0.96;100.00
42603;BME280;28233;55.748;48.752;2023-03-05T01:08:51;96945.06;;;-0.92;100.00
42603;BME280;28233;55.748;48.752;2023-03-05T01:10:54;96940.94;;;-0.98;100.00
42603;BME280;28233;55.748;48.752;2023-03-05T01:12:57;96944.22;;;-1.01;100.00
42603;BME280;28233;55.748;48.752;2023-03-05T01:14:59;96936.16;;;-1.01;100.00
42603;BME280;28233;55.748;48.752;2023-03-05T01:17:04;96923.59;;;-1.06;100.00
42603;BME280;28233;55.748;48.752;2023-03-05T01:19:07;96930.59;;;-1.05;100.00
42603;BME280;28233;55.748;48.752;2023-03-05T01:21:10;96917.25;;;-1.10;100.00
42603;BME280;28233;55.748;48.752;2023-03-05T01:23:14;96926.28;;;-1.15;100.00
42603;BME280;28233;55.748;48.752;2023-03-05T01:25:17;96925.44;;;-1.24;100.00
42603;BME280;28233;55.748;48.752;2023-03-05T01:27:19;96913.03;;;-1.34;100.00
42603;BME280;28233;55.748;48.752;2023-03-05T01:29:22;96913.13;;;-1.39;100.00
42603;BME280;28233;55.748;48.752;2023-03-05T01:31:25;96910.56;;;-1.44;100.00
42603;BME280;28233;55.748;48.752;2023-03-05T01:33:28;96915.28;;;-1.50;100.00
42603;BME280;28233;55.748;48.752;2023-03-05T01:35:30;96897.50;;;-1.59;100.00
42603;BME280;28233;55.748;48.752;2023-03-05T01:37:33;96908.47;;;-1.70;100.00
42603;BME280;28233;55.748;48.752;2023-03-05T01:39:36;96899.88;;;-1.80;100.00
42603;BME280;28233;55.748;48.752;2023-03-05T01:41:38;96894.50;;;-1.80;100.00
42603;BME280;28233;55.748;48.752;2023-03-05T01:43:42;96897.78;;;-1.83;100.00
42603;BME280;28233;55.748;48.752;2023-03-05T01:48:25;96886.09;;;-2.01;100.00
42603;BME280;28233;55.748;48.752;2023-03-05T01:50:29;96883.53;;;-2.06;100.00
42603;BME280;28233;55.748;48.752;2023-03-05T01:52:34;96876.66;;;-2.13;100.00
42603;BME280;28233;55.748;48.752;2023-03-05T01:54:43;96870.50;;;-2.13;100.00
42603;BME280;28233;55.748;48.752;2023-03-05T01:56:49;96877.28;;;-2.16;100.00
42603;BME280;28233;55.748;48.752;2023-03-05T01:58:53;96871.09;;;-2.16;100.00
42603;BME280;28233;55.748;48.752;2023-03-05T02:01:05;96860.81;;;-2.14;100.00
42603;BME280;28233;55.748;48.752;2023-03-05T02:03:09;96856.66;;;-2.20;100.00
42603;BME280;28233;55.748;48.752;2023-03-05T02:05:28;96858.38;;;-2.24;100.00
42603;BME280;28233;55.748;48.752;2023-03-05T02:07:32;96857.56;;;-2.25;100.00
42603;BME280;28233;55.748;48.752;2023-03-05T02:09:39;96858.84;;;-2.22;100.00
42603;BME280;28233;55.748;48.752;2023-03-05T02:11:42;96853.69;;;-2.19;100.00
42603;BME280;28233;55.748;48.752;2023-03-05T02:13:45;96853.84;;;-2.15;100.00
42603;BME280;28233;55.748;48.752;2023-03-05T02:15:49;96841.56;;;-2.07;100.00
42603;BME280;28233;55.748;48.752;2023-03-05T02:17:52;96836.13;;;-1.94;100.00
42603;BME280;28233;55.748;48.752;2023-03-05T02:20:03;96834.91;;;-1.87;100.00
42603;BME280;28233;55.748;48.752;2023-03-05T02:22:13;96828.28;;;-1.81;100.00
42603;BME280;28233;55.748;48.752;2023-03-05T02:24:18;96827.34;;;-1.77;100.00
42603;BME280;28233;55.748;48.752;2023-03-05T02:26:33;96821.25;;;-1.68;100.00
42603;BME280;28233;55.748;48.752;2023-03-05T02:28:45;96805.59;;;-1.66;100.00
42603;BME280;28233;55.748;48.752;2023-03-05T02:30:49;96807.50;;;-1.67;100.00
42603;BME280;28233;55.748;48.752;2023-03-05T02:32:52;96803.97;;;-1.67;100.00
42603;BME280;28233;55.748;48.752;2023-03-05T02:34:54;96806.38;;;-1.66;100.00
42603;BME280;28233;55.748;48.752;2023-03-05T02:36:57;96807.16;;;-1.65;100.00
42603;BME280;28233;55.748;48.752;2023-03-05T02:39:00;96804.19;;;-1.64;100.00
42603;BME280;28233;55.748;48.752;2023-03-05T02:41:03;96796.41;;;-1.65;100.00
42603;BME280;28233;55.748;48.752;2023-03-05T02:43:06;96791.78;;;-1.65;100.00
42603;BME280;28233;55.748;48.752;2023-03-05T02:45:10;96785.31;;;-1.64;100.00
42603;BME280;28233;55.748;48.752;2023-03-05T02:47:13;96785.81;;;-1.62;100.00
42603;BME280;28233;55.748;48.752;2023-03-05T02:49:16;96781.72;;;-1.59;100.00
42603;BME280;28233;55.748;48.752;2023-03-05T02:51:18;96780.09;;;-1.60;100.00
42603;BME280;28233;55.748;48.752;2023-03-05T02:53:21;96773.78;;;-1.56;100.00
42603;BME280;28233;55.748;48.752;2023-03-05T02:55:25;96772.38;;;-1.53;100.00
42603;BME280;28233;55.748;48.752;2023-03-05T02:57:28;96770.00;;;-1.55;100.00
42603;BME280;28233;55.748;48.752;2023-03-05T02:59:30;96767.47;;;-1.60;100.00
42603;BME280;28233;55.748;48.752;2023-03-05T03:01:33;96754.28;;;-1.61;100.00
42603;BME280;28233;55.748;48.752;2023-03-05T03:03:36;96758.44;;;-1.55;100.00
42603;BME280;28233;55.748;48.752;2023-03-05T03:05:39;96750.03;;;-1.54;100.00
42603;BME280;28233;55.748;48.752;2023-03-05T03:07:42;96746.06;;;-1.56;100.00
42603;BME280;28233;55.748;48.752;2023-03-05T03:09:44;96733.59;;;-1.52;100.00
42603;BME280;28233;55.748;48.752;2023-03-05T03:11:47;96740.38;;;-1.55;100.00
42603;BME280;28233;55.748;48.752;2023-03-05T03:13:50;96737.69;;;-1.55;100.00
42603;BME280;28233;55.748;48.752;2023-03-05T03:16:10;96732.63;;;-1.56;100.00
42603;BME280;28233;55.748;48.752;2023-03-05T03:18:14;96728.19;;;-1.52;100.00
42603;BME280;28233;55.748;48.752;2023-03-05T03:20:17;96726.13;;;-1.55;100.00
42603;BME280;28233;55.748;48.752;2023-03-05T03:22:20;96722.81;;;-1.52;100.00
42603;BME280;28233;55.748;48.752;2023-03-05T03:24:23;96720.91;;;-1.52;100.00
42603;BME280;28233;55.748;48.752;2023-03-05T03:26:25;96713.75;;;-1.56;100.00
42603;BME280;28233;55.748;48.752;2023-03-05T03:28:28;96715.72;;;-1.48;100.00
42603;BME280;28233;55.748;48.752;2023-03-05T03:30:31;96705.56;;;-1.42;100.00
42603;BME280;28233;55.748;48.752;2023-03-05T03:32:33;96701.47;;;-1.40;100.00
42603;BME280;28233;55.748;48.752;2023-03-05T03:34:36;96698.31;;;-1.33;100.00
42603;BME280;28233;55.748;48.752;2023-03-05T03:36:39;96696.91;;;-1.31;100.00
42603;BME280;28233;55.748;48.752;2023-03-05T03:38:41;96690.72;;;-1.31;100.00
42603;BME280;28233;55.748;48.752;2023-03-05T03:40:44;96691.66;;;-1.27;100.00
42603;BME280;28233;55.748;48.752;2023-03-05T03:42:47;96691.19;;;-1.29;100.00
42603;BME280;28233;55.748;48.752;2023-03-05T03:44:50;96682.00;;;-1.28;100.00
42603;BME280;28233;55.748;48.752;2023-03-05T03:46:53;96675.03;;;-1.29;100.00
42603;BME280;28233;55.748;48.752;2023-03-05T03:48:56;96681.06;;;-1.23;100.00
42603;BME280;28233;55.748;48.752;2023-03-05T03:50:58;96674.56;;;-1.31;100.00
42603;BME280;28233;55.748;48.752;2023-03-05T03:53:01;96671.53;;;-1.30;100.00
42603;BME280;28233;55.748;48.752;2023-03-05T03:55:04;96674.06;;;-1.33;100.00
42603;BME280;28233;55.748;48.752;2023-03-05T03:57:08;96671.41;;;-1.24;100.00
42603;BME280;28233;55.748;48.752;2023-03-05T03:59:11;96670.13;;;-1.18;100.00
42603;BME280;28233;55.748;48.752;2023-03-05T04:01:14;96654.91;;;-1.14;100.00
42603;BME280;28233;55.748;48.752;2023-03-05T04:03:16;96658.59;;;-1.10;100.00
42603;BME280;28233;55.748;48.752;2023-03-05T04:05:19;96654.63;;;-0.95;100.00
42603;BME280;28233;55.748;48.752;2023-03-05T04:07:22;96651.28;;;-1.01;100.00
42603;BME280;28233;55.748;48.752;2023-03-05T04:09:24;96656.03;;;-0.98;100.00
42603;BME280;28233;55.748;48.752;2023-03-05T04:11:27;96649.53;;;-0.97;100.00
42603;BME280;28233;55.748;48.752;2023-03-05T04:13:30;96644.16;;;-0.97;100.00
42603;BME280;28233;55.748;48.752;2023-03-05T04:15:32;96639.06;;;-0.90;100.00
42603;BME280;28233;55.748;48.752;2023-03-05T04:17:35;96638.28;;;-0.90;100.00
42603;BME280;28233;55.748;48.752;2023-03-05T04:19:38;96633.22;;;-0.92;100.00
42603;BME280;28233;55.748;48.752;2023-03-05T04:21:41;96633.84;;;-0.95;100.00
42603;BME280;28233;55.748;48.752;2023-03-05T04:23:44;96631.47;;;-0.96;100.00
42603;BME280;28233;55.748;48.752;2023-03-05T04:25:47;96628.28;;;-1.07;100.00
42603;BME280;28233;55.748;48.752;2023-03-05T04:27:50;96630.81;;;-1.02;100.00
42603;BME280;28233;55.748;48.752;2023-03-05T04:29:53;96617.19;;;-0.97;100.00
42603;BME280;28233;55.748;48.752;2023-03-05T04:31:55;96621.50;;;-0.96;100.00
42603;BME280;28233;55.748;48.752;2023-03-05T04:33:59;96623.22;;;-1.00;100.00
42603;BME280;28233;55.748;48.752;2023-03-05T04:36:02;96623.72;;;-0.98;100.00
42603;BME280;28233;55.748;48.752;2023-03-05T04:38:05;96614.97;;;-0.95;100.00
42603;BME280;28233;55.748;48.752;2023-03-05T04:40:08;96618.63;;;-0.99;100.00
42603;BME280;28233;55.748;48.752;2023-03-05T04:42:11;96616.88;;;-0.95;100.00
42603;BME280;28233;55.748;48.752;2023-03-05T04:44:14;96612.28;;;-0.95;100.00
42603;BME280;28233;55.748;48.752;2023-03-05T04:46:16;96601.66;;;-0.91;100.00
42603;BME280;28233;55.748;48.752;2023-03-05T04:48:19;96597.06;;;-0.91;100.00
42603;BME280;28233;55.748;48.752;2023-03-05T04:50:22;96595.16;;;-0.90;100.00
42603;BME280;28233;55.748;48.752;2023-03-05T04:52:25;96590.72;;;-0.86;100.00
42603;BME280;28233;55.748;48.752;2023-03-05T04:54:28;96585.16;;;-0.90;100.00
42603;BME280;28233;55.748;48.752;2023-03-05T04:56:30;96585.97;;;-0.89;100.00
42603;BME280;28233;55.748;48.752;2023-03-05T04:58:33;96578.97;;;-0.90;100.00
42603;BME280;28233;55.748;48.752;2023-03-05T05:00:36;96575.63;;;-0.87;100.00
42603;BME280;28233;55.748;48.752;2023-03-05T05:02:43;96571.69;;;-0.90;100.00
42603;BME280;28233;55.748;48.752;2023-03-05T05:04:46;96572.94;;;-0.87;100.00
42603;BME280;28233;55.748;48.752;2023-03-05T05:06:49;96572.94;;;-0.78;100.00
42603;BME280;28233;55.748;48.752;2023-03-05T05:08:51;96568.03;;;-0.76;100.00
42603;BME280;28233;55.748;48.752;2023-03-05T05:11:02;96560.09;;;-0.73;100.00
42603;BME280;28233;55.748;48.752;2023-03-05T05:13:05;96565.63;;;-0.69;100.00
42603;BME280;28233;55.748;48.752;2023-03-05T05:15:08;96544.22;;;-0.66;100.00
42603;BME280;28233;55.748;48.752;2023-03-05T05:17:12;96557.84;;;-0.62;100.00
42603;BME280;28233;55.748;48.752;2023-03-05T05:19:15;96542.44;;;-0.61;100.00
42603;BME280;28233;55.748;48.752;2023-03-05T05:21:21;96556.56;;;-0.56;100.00
42603;BME280;28233;55.748;48.752;2023-03-05T05:23:23;96544.53;;;-0.58;100.00
42603;BME280;28233;55.748;48.752;2023-03-05T05:25:26;96542.91;;;-0.51;100.00
42603;BME280;28233;55.748;48.752;2023-03-05T05:27:29;96544.47;;;-0.50;100.00
42603;BME280;28233;55.748;48.752;2023-03-05T05:29:32;96541.47;;;-0.48;100.00
42603;BME280;28233;55.748;48.752;2023-03-05T05:31:35;96544.94;;;-0.48;100.00
42603;BME280;28233;55.748;48.752;2023-03-05T05:33:38;96544.94;;;-0.48;100.00
42603;BME280;28233;55.748;48.752;2023-03-05T05:35:41;96546.19;;;-0.45;100.00
42603;BME280;28233;55.748;48.752;2023-03-05T05:37:43;96544.81;;;-0.51;100.00
42603;BME280;28233;55.748;48.752;2023-03-05T05:39:46;96536.09;;;-0.57;100.00
42603;BME280;28233;55.748;48.752;2023-03-05T05:41:52;96534.53;;;-0.58;100.00
42603;BME280;28233;55.748;48.752;2023-03-05T05:43:55;96532.13;;;-0.59;100.00
42603;BME280;28233;55.748;48.752;2023-03-05T05:46:02;96535.94;;;-0.52;100.00
42603;BME280;28233;55.748;48.752;2023-03-05T05:48:05;96534.81;;;-0.59;100.00
42603;BME280;28233;55.748;48.752;2023-03-05T05:50:10;96532.78;;;-0.62;100.00
42603;BME280;28233;55.748;48.752;2023-03-05T05:52:12;96526.44;;;-0.58;100.00
42603;BME280;28233;55.748;48.752;2023-03-05T05:54:16;96522.44;;;-0.52;100.00
42603;BME280;28233;55.748;48.752;2023-03-05T05:56:18;96517.38;;;-0.53;100.00
42603;BME280;28233;55.748;48.752;2023-03-05T05:58:21;96522.59;;;-0.57;100.00
42603;BME280;28233;55.748;48.752;2023-03-05T06:00:24;96522.56;;;-0.48;100.00
42603;BME280;28233;55.748;48.752;2023-03-05T06:02:27;96530.66;;;-0.39;100.00
42603;BME280;28233;55.748;48.752;2023-03-05T06:04:29;96525.53;;;-0.32;100.00
42603;BME280;28233;55.748;48.752;2023-03-05T06:06:32;96514.78;;;-0.41;100.00
42603;BME280;28233;55.748;48.752;2023-03-05T06:08:36;96513.63;;;-0.31;100.00
42603;BME280;28233;55.748;48.752;2023-03-05T06:10:39;96517.09;;;-0.31;100.00
42603;BME280;28233;55.748;48.752;2023-03-05T06:12:42;96516.59;;;-0.24;100.00
42603;BME280;28233;55.748;48.752;2023-03-05T06:14:44;96523.22;;;-0.13;100.00
42603;BME280;28233;55.748;48.752;2023-03-05T06:16:48;96514.44;;;-0.01;100.00
42603;BME280;28233;55.748;48.752;2023-03-05T06:18:52;96519.34;;;-0.03;100.00
42603;BME280;28233;55.748;48.752;2023-03-05T06:20:56;96529.66;;;0.04;100.00
42603;BME280;28233;55.748;48.752;2023-03-05T06:22:59;96518.59;;;0.17;100.00
42603;BME280;28233;55.748;48.752;2023-03-05T06:25:04;96517.47;;;0.18;100.00
42603;BME280;28233;55.748;48.752;2023-03-05T06:27:07;96526.91;;;0.12;100.00
42603;BME280;28233;55.748;48.752;2023-03-05T06:29:10;96524.78;;;0.18;100.00
42603;BME280;28233;55.748;48.752;2023-03-05T06:31:17;96528.28;;;0.18;100.00
42603;BME280;28233;55.748;48.752;2023-03-05T06:33:20;96526.03;;;0.20;100.00
42603;BME280;28233;55.748;48.752;2023-03-05T06:35:23;96525.69;;;0.31;100.00
42603;BME280;28233;55.748;48.752;2023-03-05T06:37:26;96523.75;;;0.31;100.00
42603;BME280;28233;55.748;48.752;2023-03-05T06:39:29;96522.78;;;0.36;100.00
42603;BME280;28233;55.748;48.752;2023-03-05T06:41:32;96521.38;;;0.51;100.00
42603;BME280;28233;55.748;48.752;2023-03-05T06:43:36;96521.78;;;0.61;100.00
42603;BME280;28233;55.748;48.752;2023-03-05T06:45:40;96515.84;;;0.68;100.00
42603;BME280;28233;55.748;48.752;2023-03-05T06:47:42;96518.00;;;0.75;100.00
42603;BME280;28233;55.748;48.752;2023-03-05T06:49:45;96529.22;;;0.86;100.00
42603;BME280;28233;55.748;48.752;2023-03-05T06:51:48;96519.69;;;1.00;100.00
42603;BME280;28233;55.748;48.752;2023-03-05T06:53:57;96514.66;;;1.11;100.00
42603;BME280;28233;55.748;48.752;2023-03-05T06:56:01;96512.13;;;1.27;100.00
42603;BME280;28233;55.748;48.752;2023-03-05T06:58:04;96516.09;;;1.42;100.00
42603;BME280;28233;55.748;48.752;2023-03-05T07:00:07;96507.06;;;1.50;100.00
42603;BME280;28233;55.748;48.752;2023-03-05T07:02:11;96522.31;;;1.55;99.96
42603;BME280;28233;55.748;48.752;2023-03-05T07:04:15;96520.84;;;1.57;98.70
42603;BME280;28233;55.748;48.752;2023-03-05T07:06:19;96514.41;;;1.62;98.22
42603;BME280;28233;55.748;48.752;2023-03-05T07:08:22;96518.03;;;1.66;97.82
42603;BME280;28233;55.748;48.752;2023-03-05T07:10:25;96516.25;;;1.70;97.02
42603;BME280;28233;55.748;48.752;2023-03-05T07:12:27;96513.53;;;1.70;96.30
42603;BME280;28233;55.748;48.752;2023-03-05T07:14:30;96518.16;;;1.82;96.49
42603;BME280;28233;55.748;48.752;2023-03-05T07:16:33;96510.16;;;1.85;96.01
42603;BME280;28233;55.748;48.752;2023-03-05T07:18:36;96506.66;;;1.97;96.24
42603;BME280;28233;55.748;48.752;2023-03-05T07:20:42;96505.06;;;2.08;95.33
42603;BME280;28233;55.748;48.752;2023-03-05T07:22:45;96514.66;;;2.18;94.58
42603;BME280;28233;55.748;48.752;2023-03-05T07:24:48;96513.31;;;2.24;94.34
42603;BME280;28233;55.748;48.752;2023-03-05T07:26:50;96515.69;;;2.26;93.04
42603;BME280;28233;55.748;48.752;2023-03-05T07:28:53;96513.38;;;2.28;91.27
42603;BME280;28233;55.748;48.752;2023-03-05T07:30:57;96517.34;;;2.18;90.71
42603;BME280;28233;55.748;48.752;2023-03-05T07:33:01;96521.00;;;2.10;89.66
42603;BME280;28233;55.748;48.752;2023-03-05T07:35:04;96527.94;;;2.23;92.94
42603;BME280;28233;55.748;48.752;2023-03-05T07:37:07;96516.00;;;2.24;90.67
42603;BME280;28233;55.748;48.752;2023-03-05T07:39:10;96528.53;;;2.29;90.93
42603;BME280;28233;55.748;48.752;2023-03-05T07:41:16;96521.97;;;2.42;92.10
42603;BME280;28233;55.748;48.752;2023-03-05T07:43:23;96530.72;;;2.51;92.21
42603;BME280;28233;55.748;48.752;2023-03-05T07:45:26;96520.34;;;2.53;91.59
42603;BME280;28233;55.748;48.752;2023-03-05T07:47:28;96522.38;;;2.57;91.03
42603;BME280;28233;55.748;48.752;2023-03-05T07:49:32;96519.69;;;2.57;89.12
42603;BME280;28233;55.748;48.752;2023-03-05T07:51:34;96523.03;;;2.66;90.20
42603;BME280;28233;55.748;48.752;2023-03-05T07:53:37;96515.03;;;2.57;86.55
42603;BME280;28233;55.748;48.752;2023-03-05T07:55:44;96521.91;;;2.67;88.93
42603;BME280;28233;55.748;48.752;2023-03-05T07:57:47;96517.63;;;2.66;88.22
42603;BME280;28233;55.748;48.752;2023-03-05T07:59:49;96520.56;;;2.61;87.49
42603;BME280;28233;55.748;48.752;2023-03-05T08:01:52;96520.56;;;2.61;86.43
42603;BME280;28233;55.748;48.752;2023-03-05T08:03:55;96515.91;;;2.73;88.77
42603;BME280;28233;55.748;48.752;2023-03-05T08:05:58;96519.72;;;2.72;85.90
42603;BME280;28233;55.748;48.752;2023-03-05T08:08:00;96519.06;;;2.75;88.03
42603;BME280;28233;55.748;48.752;2023-03-05T08:10:04;96514.16;;;2.81;87.68
42603;BME280;28233;55.748;48.752;2023-03-05T08:12:07;96504.03;;;2.78;84.76
42603;BME280;28233;55.748;48.752;2023-03-05T08:14:11;96522.84;;;2.87;87.90
42603;BME280;28233;55.748;48.752;2023-03-05T08:16:19;96512.09;;;2.90;89.03
42603;BME280;28233;55.748;48.752;2023-03-05T08:18:23;96512.34;;;2.85;88.36
42603;BME280;28233;55.748;48.752;2023-03-05T08:20:26;96515.31;;;2.80;87.84
42603;BME280;28233;55.748;48.752;2023-03-05T08:22:31;96505.34;;;2.84;87.61
42603;BME280;28233;55.748;48.752;2023-03-05T08:24:34;96508.50;;;2.86;87.15
42603;BME280;28233;55.748;48.752;2023-03-05T08:26:37;96509.13;;;2.95;87.77
42603;BME280;28233;55.748;48.752;2023-03-05T08:28:40;96521.59;;;2.96;84.85
42603;BME280;28233;55.748;48.752;2023-03-05T08:30:43;96511.25;;;3.02;84.76
42603;BME280;28233;55.748;48.752;2023-03-05T08:32:47;96508.53;;;3.30;84.96
42603;BME280;28233;55.748;48.752;2023-03-05T08:34:50;96516.88;;;3.53;86.70
42603;BME280;28233;55.748;48.752;2023-03-05T08:36:58;96504.00;;;3.82;86.16
42603;BME280;28233;55.748;48.752;2023-03-05T08:39:01;96496.78;;;4.06;83.84
42603;BME280;28233;55.748;48.752;2023-03-05T08:41:05;96512.59;;;4.00;82.02
42603;BME280;28233;55.748;48.752;2023-03-05T08:43:07;96506.44;;;4.03;82.54
42603;BME280;28233;55.748;48.752;2023-03-05T08:45:10;96502.41;;;3.97;81.76
42603;BME280;28233;55.748;48.752;2023-03-05T08:47:14;96505.22;;;4.00;82.48
42603;BME280;28233;55.748;48.752;2023-03-05T08:49:17;96502.31;;;4.09;82.35
42603;BME280;28233;55.748;48.752;2023-03-05T08:51:22;96512.31;;;4.21;82.49
42603;BME280;28233;55.748;48.752;2023-03-05T08:53:28;96500.13;;;4.15;79.01
42603;BME280;28233;55.748;48.752;2023-03-05T08:55:31;96512.06;;;3.94;78.46
42603;BME280;28233;55.748;48.752;2023-03-05T08:57:34;96495.53;;;3.84;78.89
42603;BME280;28233;55.748;48.752;2023-03-05T08:59:37;96495.84;;;3.82;80.09
42603;BME280;28233;55.748;48.752;2023-03-05T09:01:39;96491.91;;;3.64;78.41
42603;BME280;28233;55.748;48.752;2023-03-05T09:03:42;96491.91;;;3.64;79.40
42603;BME280;28233;55.748;48.752;2023-03-05T09:05:45;96489.03;;;3.56;77.93
42603;BME280;28233;55.748;48.752;2023-03-05T09:07:48;96485.38;;;3.65;79.14
42603;BME280;28233;55.748;48.752;2023-03-05T09:09:50;96489.53;;;3.78;79.51
42603;BME280;28233;55.748;48.752;2023-03-05T09:11:53;96486.72;;;3.90;79.71
42603;BME280;28233;55.748;48.752;2023-03-05T09:13:55;96497.06;;;3.85;77.64
42603;BME280;28233;55.748;48.752;2023-03-05T09:16:00;96481.13;;;3.99;77.73
42603;BME280;28233;55.748;48.752;2023-03-05T09:18:04;96485.16;;;4.05;78.50
42603;BME280;28233;55.748;48.752;2023-03-05T09:20:09;96478.41;;;3.99;77.24
42603;BME280;28233;55.748;48.752;2023-03-05T09:22:12;96481.41;;;3.78;74.30
42603;BME280;28233;55.748;48.752;2023-03-05T09:24:15;96474.06;;;3.63;77.20
42603;BME280;28233;55.748;48.752;2023-03-05T09:26:18;96478.88;;;3.69;77.09
42603;BME280;28233;55.748;48.752;2023-03-05T09:28:21;96478.84;;;3.85;78.11
42603;BME280;28233;55.748;48.752;2023-03-05T09:30:24;96480.50;;;3.90;78.14
42603;BME280;28233;55.748;48.752;2023-03-05T09:32:27;96479.13;;;3.96;78.16
42603;BME280;28233;55.748;48.752;2023-03-05T09:34:29;96475.97;;;3.94;77.38
42603;BME280;28233;55.748;48.752;2023-03-05T09:36:33;96479.28;;;4.03;78.63
42603;BME280;28233;55.748;48.752;2023-03-05T09:38:35;96482.22;;;4.14;80.48
42603;BME280;28233;55.748;48.752;2023-03-05T09:40:58;96486.88;;;4.13;76.52
42603;BME280;28233;55.748;48.752;2023-03-05T09:45:52;96483.84;;;4.34;75.03
42603;BME280;28233;55.748;48.752;2023-03-05T09:48:16;96484.09;;;4.45;73.12
42603;BME280;28233;55.748;48.752;2023-03-05T09:50:30;96474.00;;;4.45;73.69
42603;BME280;28233;55.748;48.752;2023-03-05T09:52:44;96475.41;;;4.39;72.19
42603;BME280;28233;55.748;48.752;2023-03-05T09:57:08;96471.81;;;4.71;75.35
42603;BME280;28233;55.748;48.752;2023-03-05T10:01:37;96490.69;;;4.83;70.75
42603;BME280;28233;55.748;48.752;2023-03-05T10:03:57;96495.34;;;4.82;67.81
42603;BME280;28233;55.748;48.752;2023-03-05T10:08:32;96489.81;;;4.59;71.31
42603;BME280;28233;55.748;48.752;2023-03-05T10:10:41;96488.22;;;4.58;72.89
42603;BME280;28233;55.748;48.752;2023-03-05T10:12:55;96495.81;;;4.49;69.49
42603;BME280;28233;55.748;48.752;2023-03-05T10:14:59;96495.31;;;4.43;72.12
42603;BME280;28233;55.748;48.752;2023-03-05T10:22:30;96498.22;;;4.35;75.26
42603;BME280;28233;55.748;48.752;2023-03-05T10:25:09;96496.41;;;4.23;68.39
42603;BME280;28233;55.748;48.752;2023-03-05T10:27:25;96486.53;;;4.15;76.38
42603;BME280;28233;55.748;48.752;2023-03-05T10:32:57;96497.31;;;4.11;71.24
42603;BME280;28233;55.748;48.752;2023-03-05T10:37:43;96495.94;;;4.37;72.97
42603;BME280;28233;55.748;48.752;2023-03-05T10:42:33;96488.47;;;4.50;75.97
42603;BME280;28233;55.748;48.752;2023-03-05T10:44:59;96490.06;;;4.35;71.63
42603;BME280;28233;55.748;48.752;2023-03-05T10:47:22;96486.69;;;4.22;73.58
42603;BME280;28233;55.748;48.752;2023-03-05T10:49:34;96484.63;;;4.35;75.41
42603;BME280;28233;55.748;48.752;2023-03-05T10:51:40;96490.75;;;4.48;77.21
42603;BME280;28233;55.748;48.752;2023-03-05T10:56:00;96492.69;;;4.66;74.75
42603;BME280;28233;55.748;48.752;2023-03-05T10:58:14;96494.41;;;4.55;73.40
42603;BME280;28233;55.748;48.752;2023-03-05T11:02:25;96504.00;;;4.69;79.00
42603;BME280;28233;55.748;48.752;2023-03-05T11:04:29;96501.06;;;4.58;76.92
42603;BME280;28233;55.748;48.752;2023-03-05T11:06:39;96505.63;;;4.54;76.91
42603;BME280;28233;55.748;48.752;2023-03-05T11:08:42;96503.00;;;4.22;74.20
42603;BME280;28233;55.748;48.752;2023-03-05T11:10:45;96503.09;;;4.10;75.38
42603;BME280;28233;55.748;48.752;2023-03-05T11:12:48;96496.34;;;4.03;76.70
42603;BME280;28233;55.748;48.752;2023-03-05T11:17:31;96506.09;;;3.89;71.30
42603;BME280;28233;55.748;48.752;2023-03-05T11:19:34;96508.13;;;3.92;78.00
42603;BME280;28233;55.748;48.752;2023-03-05T11:21:39;96503.41;;;3.89;78.62
42603;BME280;28233;55.748;48.752;2023-03-05T11:23:42;96508.91;;;3.92;79.21